Check out our new PWSWeather beta!
PWSweather.com
Personal Weather Stations
Station Observations
KMIEASTT1
Tawas Bay, East Tawas, MI 48730

Tawas BayEast Tawas, MI 48730

Lat: 44.28, Lon: -83.48

Elevation: 600

Station Type: Davis VantagePro

http://www.tawasbayweather.com

High Low Average
Temperature 23.3°F-4.8°F 6.4°F-14.2°F 15.2°F-9.3°F
Dew Point 10.5°F-11.9°F 2.1°F-16.6°F 6.0°F-14.4°F
Winds 12.0 mph -19.3 mph - Calm Calm 3.7 mph 6.0 mph
Wind Gusts 17.0 mph27.4 mph 2.0 mph3.2 mph 7.2 mph11.6 mph
Humidity 84% 49% 67%
Pressure 30.69 in1039.30 in 30.58 in1035.60 in -
Precipitation 0.00 in0.00 in - -
Hour Temp Dew Point Humidity Winds Wind Gusts Pressure Precip Precip Rate Daily Precip Total
12:00 AM 11.6°F-11.3°C 4.0°F-15.6°C 71% 1.0 mph NW1.6 kmh NW 3.0 mph4.8 kmh 30.58 in1035.6 mb 0.00 in0.0 mm 0.00 in0.0 mm 0.00 in0.0 mm
12:15 AM 11.6°F-11.3°C 4.0°F-15.6°C 71% 2.0 mph WNW3.2 kmh WNW 4.0 mph6.4 kmh 30.59 in1035.9 mb 0.00 in0.0 mm 0.00 in0.0 mm 0.00 in0.0 mm
12:30 AM 11.2°F-11.6°C 3.7°F-15.7°C 71% Calm Calm 2.0 mph3.2 kmh 30.59 in1035.9 mb 0.00 in0.0 mm 0.00 in0.0 mm 0.00 in0.0 mm
12:45 AM 10.4°F-12.0°C 3.2°F-16.0°C 72% Calm Calm 2.0 mph3.2 kmh 30.60 in1036.2 mb 0.00 in0.0 mm 0.00 in0.0 mm 0.00 in0.0 mm
01:00 AM 10.2°F-12.1°C 3.3°F-15.9°C 73% 1.0 mph NW1.6 kmh NW 4.0 mph6.4 kmh 30.60 in1036.2 mb 0.00 in0.0 mm 0.00 in0.0 mm 0.00 in0.0 mm
01:15 AM 9.9°F-12.3°C 3.3°F-15.9°C 74% 1.0 mph WNW1.6 kmh WNW 3.0 mph4.8 kmh 30.61 in1036.6 mb 0.00 in0.0 mm 0.00 in0.0 mm 0.00 in0.0 mm
01:30 AM 10.0°F-12.2°C 3.4°F-15.9°C 74% 1.0 mph NW1.6 kmh NW 4.0 mph6.4 kmh 30.61 in1036.6 mb 0.00 in0.0 mm 0.00 in0.0 mm 0.00 in0.0 mm
01:45 AM 9.7°F-12.4°C 3.1°F-16.1°C 74% 2.0 mph NW3.2 kmh NW 4.0 mph6.4 kmh 30.61 in1036.6 mb 0.00 in0.0 mm 0.00 in0.0 mm 0.00 in0.0 mm
02:00 AM 9.4°F-12.6°C 3.1°F-16.1°C 75% Calm Calm 3.0 mph4.8 kmh 30.60 in1036.2 mb 0.00 in0.0 mm 0.00 in0.0 mm 0.00 in0.0 mm
02:15 AM 9.5°F-12.5°C 3.5°F-15.8°C 76% 1.0 mph WNW1.6 kmh WNW 3.0 mph4.8 kmh 30.60 in1036.2 mb 0.00 in0.0 mm 0.00 in0.0 mm 0.00 in0.0 mm
02:30 AM 8.8°F-12.9°C 2.5°F-16.4°C 75% 2.0 mph NW3.2 kmh NW 5.0 mph8.0 kmh 30.60 in1036.2 mb 0.00 in0.0 mm 0.00 in0.0 mm 0.00 in0.0 mm
02:45 AM 8.2°F-13.2°C 2.5°F-16.4°C 77% 2.0 mph NW3.2 kmh NW 3.0 mph4.8 kmh 30.60 in1036.2 mb 0.00 in0.0 mm 0.00 in0.0 mm 0.00 in0.0 mm
03:00 AM 8.2°F-13.2°C 2.8°F-16.2°C 78% 2.0 mph NW3.2 kmh NW 5.0 mph8.0 kmh 30.60 in1036.2 mb 0.00 in0.0 mm 0.00 in0.0 mm 0.00 in0.0 mm
03:15 AM 8.3°F-13.2°C 2.6°F-16.3°C 77% 4.0 mph NW6.4 kmh NW 7.0 mph11.3 kmh 30.59 in1035.9 mb 0.00 in0.0 mm 0.00 in0.0 mm 0.00 in0.0 mm
03:30 AM 8.5°F-13.1°C 2.8°F-16.2°C 77% 3.0 mph NW4.8 kmh NW 5.0 mph8.0 kmh 30.59 in1035.9 mb 0.00 in0.0 mm 0.00 in0.0 mm 0.00 in0.0 mm
03:45 AM 8.7°F-12.9°C 3.3°F-15.9°C 78% 2.0 mph NW3.2 kmh NW 5.0 mph8.0 kmh 30.59 in1035.9 mb 0.00 in0.0 mm 0.00 in0.0 mm 0.00 in0.0 mm
04:00 AM 9.0°F-12.8°C 3.6°F-15.8°C 78% 1.0 mph NNW1.6 kmh NNW 4.0 mph6.4 kmh 30.59 in1035.9 mb 0.00 in0.0 mm 0.00 in0.0 mm 0.00 in0.0 mm
04:15 AM 9.2°F-12.7°C 3.7°F-15.7°C 78% 1.0 mph NW1.6 kmh NW 4.0 mph6.4 kmh 30.59 in1035.9 mb 0.00 in0.0 mm 0.00 in0.0 mm 0.00 in0.0 mm
04:30 AM 9.2°F-12.7°C 3.7°F-15.7°C 78% 3.0 mph NW4.8 kmh NW 4.0 mph6.4 kmh 30.59 in1035.9 mb 0.00 in0.0 mm 0.00 in0.0 mm 0.00 in0.0 mm
04:45 AM 9.0°F-12.8°C 3.6°F-15.8°C 78% 3.0 mph NW4.8 kmh NW 4.0 mph6.4 kmh 30.60 in1036.2 mb 0.00 in0.0 mm 0.00 in0.0 mm 0.00 in0.0 mm
05:00 AM 8.6°F-13.0°C 3.4°F-15.9°C 79% 2.0 mph NW3.2 kmh NW 4.0 mph6.4 kmh 30.60 in1036.2 mb 0.00 in0.0 mm 0.00 in0.0 mm 0.00 in0.0 mm
05:15 AM 8.5°F-13.1°C 3.3°F-15.9°C 79% 5.0 mph WNW8.0 kmh WNW 5.0 mph8.0 kmh 30.60 in1036.2 mb 0.00 in0.0 mm 0.00 in0.0 mm 0.00 in0.0 mm
05:30 AM 8.2°F-13.2°C 3.1°F-16.1°C 79% 3.0 mph NW4.8 kmh NW 5.0 mph8.0 kmh 30.61 in1036.6 mb 0.00 in0.0 mm 0.00 in0.0 mm 0.00 in0.0 mm
05:45 AM 7.8°F-13.4°C 2.9°F-16.2°C 80% 2.0 mph NW3.2 kmh NW 4.0 mph6.4 kmh 30.61 in1036.6 mb 0.00 in0.0 mm 0.00 in0.0 mm 0.00 in0.0 mm
06:00 AM 7.5°F-13.6°C 2.9°F-16.2°C 81% 3.0 mph NW4.8 kmh NW 6.0 mph9.7 kmh 30.61 in1036.6 mb 0.00 in0.0 mm 0.00 in0.0 mm 0.00 in0.0 mm
06:15 AM 7.3°F-13.7°C 2.7°F-16.3°C 81% 3.0 mph NW4.8 kmh NW 5.0 mph8.0 kmh 30.62 in1036.9 mb 0.00 in0.0 mm 0.00 in0.0 mm 0.00 in0.0 mm
06:30 AM 7.1°F-13.8°C 2.8°F-16.2°C 82% 3.0 mph NW4.8 kmh NW 5.0 mph8.0 kmh 30.63 in1037.3 mb 0.00 in0.0 mm 0.00 in0.0 mm 0.00 in0.0 mm
06:45 AM 6.7°F-14.1°C 2.1°F-16.6°C 81% Calm Calm 2.0 mph3.2 kmh 30.63 in1037.3 mb 0.00 in0.0 mm 0.00 in0.0 mm 0.00 in0.0 mm
07:00 AM 6.4°F-14.2°C 2.4°F-16.4°C 83% 2.0 mph NW3.2 kmh NW 4.0 mph6.4 kmh 30.64 in1037.6 mb 0.00 in0.0 mm 0.00 in0.0 mm 0.00 in0.0 mm
07:15 AM 6.9°F-13.9°C 3.1°F-16.1°C 84% 2.0 mph NW3.2 kmh NW 5.0 mph8.0 kmh 30.64 in1037.6 mb 0.00 in0.0 mm 0.00 in0.0 mm 0.00 in0.0 mm
07:30 AM 7.8°F-13.4°C 3.7°F-15.7°C 83% 3.0 mph NW4.8 kmh NW 5.0 mph8.0 kmh 30.65 in1037.9 mb 0.00 in0.0 mm 0.00 in0.0 mm 0.00 in0.0 mm
07:45 AM 8.5°F-13.1°C 4.4°F-15.3°C 83% 4.0 mph N6.4 kmh N 7.0 mph11.3 kmh 30.66 in1038.3 mb 0.00 in0.0 mm 0.00 in0.0 mm 0.00 in0.0 mm
08:00 AM 9.1°F-12.7°C 4.5°F-15.3°C 81% 2.0 mph NW3.2 kmh NW 5.0 mph8.0 kmh 30.67 in1038.6 mb 0.00 in0.0 mm 0.00 in0.0 mm 0.00 in0.0 mm
08:15 AM 9.5°F-12.5°C 4.9°F-15.1°C 81% 3.0 mph NW4.8 kmh NW 4.0 mph6.4 kmh 30.67 in1038.6 mb 0.00 in0.0 mm 0.00 in0.0 mm 0.00 in0.0 mm
08:30 AM 10.1°F-12.2°C 5.2°F-14.9°C 80% 3.0 mph NW4.8 kmh NW 8.0 mph12.9 kmh 30.68 in1038.9 mb 0.00 in0.0 mm 0.00 in0.0 mm 0.00 in0.0 mm
08:45 AM 10.8°F-11.8°C 5.3°F-14.8°C 78% 3.0 mph NW4.8 kmh NW 5.0 mph8.0 kmh 30.68 in1038.9 mb 0.00 in0.0 mm 0.00 in0.0 mm 0.00 in0.0 mm
09:00 AM 11.3°F-11.5°C 5.2°F-14.9°C 76% 3.0 mph NNW4.8 kmh NNW 5.0 mph8.0 kmh 30.69 in1039.3 mb 0.00 in0.0 mm 0.00 in0.0 mm 0.00 in0.0 mm
09:15 AM 13.2°F-10.4°C 6.5°F-14.2°C 74% 4.0 mph NW6.4 kmh NW 5.0 mph8.0 kmh 30.69 in1039.3 mb 0.00 in0.0 mm 0.00 in0.0 mm 0.00 in0.0 mm
09:30 AM 14.1°F-9.9°C 6.4°F-14.2°C 71% 2.0 mph NW3.2 kmh NW 9.0 mph14.5 kmh 30.68 in1038.9 mb 0.00 in0.0 mm 0.00 in0.0 mm 0.00 in0.0 mm
09:45 AM 15.9°F-8.9°C 7.5°F-13.6°C 69% 2.0 mph WNW3.2 kmh WNW 12.0 mph19.3 kmh 30.69 in1039.3 mb 0.00 in0.0 mm 0.00 in0.0 mm 0.00 in0.0 mm
10:00 AM 17.4°F-8.1°C 9.0°F-12.8°C 69% 1.0 mph N1.6 kmh N 7.0 mph11.3 kmh 30.68 in1038.9 mb 0.00 in0.0 mm 0.00 in0.0 mm 0.00 in0.0 mm
10:15 AM 18.2°F-7.7°C 9.1°F-12.7°C 67% 4.0 mph NNW6.4 kmh NNW 10.0 mph16.1 kmh 30.69 in1039.3 mb 0.00 in0.0 mm 0.00 in0.0 mm 0.00 in0.0 mm
10:30 AM 21.0°F-6.1°C 10.0°F-12.2°C 62% 3.0 mph NNW4.8 kmh NNW 5.0 mph8.0 kmh 30.69 in1039.3 mb 0.00 in0.0 mm 0.00 in0.0 mm 0.00 in0.0 mm
10:45 AM 20.2°F-6.6°C 9.3°F-12.6°C 62% 3.0 mph NNW4.8 kmh NNW 8.0 mph12.9 kmh 30.68 in1038.9 mb 0.00 in0.0 mm 0.00 in0.0 mm 0.00 in0.0 mm
11:00 AM 21.9°F-5.6°C 9.4°F-12.6°C 58% 4.0 mph NW6.4 kmh NW 9.0 mph14.5 kmh 30.68 in1038.9 mb 0.00 in0.0 mm 0.00 in0.0 mm 0.00 in0.0 mm
11:15 AM 20.8°F-6.2°C 9.5°F-12.5°C 61% 4.0 mph WNW6.4 kmh WNW 9.0 mph14.5 kmh 30.68 in1038.9 mb 0.00 in0.0 mm 0.00 in0.0 mm 0.00 in0.0 mm
11:30 AM 22.5°F-5.3°C 9.6°F-12.4°C 57% 4.0 mph N6.4 kmh N 6.0 mph9.7 kmh 30.68 in1038.9 mb 0.00 in0.0 mm 0.00 in0.0 mm 0.00 in0.0 mm
11:45 AM 20.7°F-6.3°C 8.3°F-13.2°C 58% 4.0 mph WNW6.4 kmh WNW 9.0 mph14.5 kmh 30.68 in1038.9 mb 0.00 in0.0 mm 0.00 in0.0 mm 0.00 in0.0 mm
12:00 PM 22.3°F-5.4°C 8.2°F-13.2°C 54% Calm Calm 8.0 mph12.9 kmh 30.69 in1039.3 mb 0.00 in0.0 mm 0.00 in0.0 mm 0.00 in0.0 mm
12:15 PM 21.7°F-5.7°C 8.4°F-13.1°C 56% 3.0 mph W4.8 kmh W 9.0 mph14.5 kmh 30.68 in1038.9 mb 0.00 in0.0 mm 0.00 in0.0 mm 0.00 in0.0 mm
12:30 PM 21.5°F-5.8°C 8.3°F-13.2°C 56% 2.0 mph NNW3.2 kmh NNW 6.0 mph9.7 kmh 30.67 in1038.6 mb 0.00 in0.0 mm 0.00 in0.0 mm 0.00 in0.0 mm
12:45 PM 20.8°F-6.2°C 7.2°F-13.8°C 55% 3.0 mph NW4.8 kmh NW 8.0 mph12.9 kmh 30.67 in1038.6 mb 0.00 in0.0 mm 0.00 in0.0 mm 0.00 in0.0 mm
01:00 PM 21.7°F-5.7°C 8.0°F-13.3°C 55% 7.0 mph NW11.3 kmh NW 11.0 mph17.7 kmh 30.67 in1038.6 mb 0.00 in0.0 mm 0.00 in0.0 mm 0.00 in0.0 mm
01:15 PM 21.0°F-6.1°C 7.0°F-13.9°C 54% 3.0 mph NNW4.8 kmh NNW 8.0 mph12.9 kmh 30.66 in1038.3 mb 0.00 in0.0 mm 0.00 in0.0 mm 0.00 in0.0 mm
01:30 PM 21.8°F-5.7°C 8.1°F-13.3°C 55% 3.0 mph NW4.8 kmh NW 8.0 mph12.9 kmh 30.65 in1037.9 mb 0.00 in0.0 mm 0.00 in0.0 mm 0.00 in0.0 mm
01:45 PM 23.1°F-4.9°C 8.1°F-13.3°C 52% 3.0 mph WSW4.8 kmh WSW 7.0 mph11.3 kmh 30.64 in1037.6 mb 0.00 in0.0 mm 0.00 in0.0 mm 0.00 in0.0 mm
02:00 PM 22.3°F-5.4°C 6.1°F-14.4°C 49% 6.0 mph W9.7 kmh W 9.0 mph14.5 kmh 30.64 in1037.6 mb 0.00 in0.0 mm 0.00 in0.0 mm 0.00 in0.0 mm
02:15 PM 22.3°F-5.4°C 6.1°F-14.4°C 49% 3.0 mph NW4.8 kmh NW 9.0 mph14.5 kmh 30.64 in1037.6 mb 0.00 in0.0 mm 0.00 in0.0 mm 0.00 in0.0 mm
02:30 PM 23.1°F-4.9°C 8.1°F-13.3°C 52% 4.0 mph NW6.4 kmh NW 17.0 mph27.4 kmh 30.63 in1037.3 mb 0.00 in0.0 mm 0.00 in0.0 mm 0.00 in0.0 mm
02:45 PM 22.2°F-5.4°C 6.8°F-14.0°C 51% 4.0 mph NW6.4 kmh NW 9.0 mph14.5 kmh 30.63 in1037.3 mb 0.00 in0.0 mm 0.00 in0.0 mm 0.00 in0.0 mm
03:00 PM 22.0°F-5.6°C 8.3°F-13.2°C 55% 9.0 mph W14.5 kmh W 13.0 mph20.9 kmh 30.63 in1037.3 mb 0.00 in0.0 mm 0.00 in0.0 mm 0.00 in0.0 mm
03:15 PM 22.6°F-5.2°C 7.6°F-13.6°C 52% 7.0 mph NW11.3 kmh NW 15.0 mph24.1 kmh 30.61 in1036.6 mb 0.00 in0.0 mm 0.00 in0.0 mm 0.00 in0.0 mm
03:30 PM 23.3°F-4.8°C 9.9°F-12.3°C 56% 12.0 mph WSW19.3 kmh WSW 12.0 mph19.3 kmh 30.61 in1036.6 mb 0.00 in0.0 mm 0.00 in0.0 mm 0.00 in0.0 mm
03:45 PM 22.7°F-5.2°C 7.3°F-13.7°C 51% 7.0 mph W11.3 kmh W 14.0 mph22.5 kmh 30.62 in1036.9 mb 0.00 in0.0 mm 0.00 in0.0 mm 0.00 in0.0 mm
04:00 PM 23.0°F-5.0°C 8.4°F-13.1°C 53% 6.0 mph W9.7 kmh W 14.0 mph22.5 kmh 30.62 in1036.9 mb 0.00 in0.0 mm 0.00 in0.0 mm 0.00 in0.0 mm
04:15 PM 22.7°F-5.2°C 7.7°F-13.5°C 52% 8.0 mph W12.9 kmh W 15.0 mph24.1 kmh 30.62 in1036.9 mb 0.00 in0.0 mm 0.00 in0.0 mm 0.00 in0.0 mm
04:30 PM 23.1°F-4.9°C 10.5°F-11.9°C 58% 11.0 mph W17.7 kmh W 12.0 mph19.3 kmh 30.62 in1036.9 mb 0.00 in0.0 mm 0.00 in0.0 mm 0.00 in0.0 mm
04:45 PM 21.8°F-5.7°C 8.1°F-13.3°C 55% 7.0 mph WNW11.3 kmh WNW 16.0 mph25.7 kmh 30.62 in1036.9 mb 0.00 in0.0 mm 0.00 in0.0 mm 0.00 in0.0 mm
05:00 PM 21.8°F-5.7°C 9.3°F-12.6°C 58% 7.0 mph WNW11.3 kmh WNW 14.0 mph22.5 kmh 30.61 in1036.6 mb 0.00 in0.0 mm 0.00 in0.0 mm 0.00 in0.0 mm
05:15 PM 22.0°F-5.6°C 9.1°F-12.7°C 57% 8.0 mph WNW12.9 kmh WNW 12.0 mph19.3 kmh 30.61 in1036.6 mb 0.00 in0.0 mm 0.00 in0.0 mm 0.00 in0.0 mm
05:30 PM 21.6°F-5.8°C 7.9°F-13.4°C 55% 5.0 mph NW8.0 kmh NW 8.0 mph12.9 kmh 30.62 in1036.9 mb 0.00 in0.0 mm 0.00 in0.0 mm 0.00 in0.0 mm
05:45 PM 21.2°F-6.0°C 8.0°F-13.3°C 56% 8.0 mph NW12.9 kmh NW 11.0 mph17.7 kmh 30.61 in1036.6 mb 0.00 in0.0 mm 0.00 in0.0 mm 0.00 in0.0 mm
06:00 PM 20.8°F-6.2°C 8.0°F-13.3°C 57% 7.0 mph NW11.3 kmh NW 9.0 mph14.5 kmh 30.61 in1036.6 mb 0.00 in0.0 mm 0.00 in0.0 mm 0.00 in0.0 mm
06:15 PM 19.8°F-6.8°C 7.8°F-13.4°C 59% 8.0 mph W12.9 kmh W 9.0 mph14.5 kmh 30.61 in1036.6 mb 0.00 in0.0 mm 0.00 in0.0 mm 0.00 in0.0 mm
06:30 PM 19.4°F-7.0°C 7.8°F-13.4°C 60% 4.0 mph W6.4 kmh W 9.0 mph14.5 kmh 30.61 in1036.6 mb 0.00 in0.0 mm 0.00 in0.0 mm 0.00 in0.0 mm
06:45 PM 19.1°F-7.2°C 7.5°F-13.6°C 60% 2.0 mph NW3.2 kmh NW 6.0 mph9.7 kmh 30.62 in1036.9 mb 0.00 in0.0 mm 0.00 in0.0 mm 0.00 in0.0 mm
07:00 PM 18.8°F-7.3°C 7.2°F-13.8°C 60% Calm Calm 3.0 mph4.8 kmh 30.62 in1036.9 mb 0.00 in0.0 mm 0.00 in0.0 mm 0.00 in0.0 mm
07:15 PM 18.3°F-7.6°C 7.5°F-13.6°C 62% 2.0 mph WNW3.2 kmh WNW 4.0 mph6.4 kmh 30.62 in1036.9 mb 0.00 in0.0 mm 0.00 in0.0 mm 0.00 in0.0 mm
07:30 PM 18.0°F-7.8°C 7.5°F-13.6°C 63% 3.0 mph W4.8 kmh W 4.0 mph6.4 kmh 30.62 in1036.9 mb 0.00 in0.0 mm 0.00 in0.0 mm 0.00 in0.0 mm
07:45 PM 17.3°F-8.2°C 8.6°F-13.0°C 68% 3.0 mph W4.8 kmh W 4.0 mph6.4 kmh 30.62 in1036.9 mb 0.00 in0.0 mm 0.00 in0.0 mm 0.00 in0.0 mm
08:00 PM 17.0°F-8.3°C 8.3°F-13.2°C 68% 3.0 mph W4.8 kmh W 3.0 mph4.8 kmh 30.62 in1036.9 mb 0.00 in0.0 mm 0.00 in0.0 mm 0.00 in0.0 mm
08:15 PM 16.7°F-8.5°C 8.3°F-13.2°C 69% 1.0 mph W1.6 kmh W 3.0 mph4.8 kmh 30.62 in1036.9 mb 0.00 in0.0 mm 0.00 in0.0 mm 0.00 in0.0 mm
08:30 PM 16.3°F-8.7°C 7.6°F-13.6°C 68% 2.0 mph W3.2 kmh W 4.0 mph6.4 kmh 30.62 in1036.9 mb 0.00 in0.0 mm 0.00 in0.0 mm 0.00 in0.0 mm
08:45 PM 16.1°F-8.8°C 6.8°F-14.0°C 66% 7.0 mph W11.3 kmh W 8.0 mph12.9 kmh 30.61 in1036.6 mb 0.00 in0.0 mm 0.00 in0.0 mm 0.00 in0.0 mm
09:00 PM 15.9°F-8.9°C 6.6°F-14.1°C 66% 4.0 mph W6.4 kmh W 6.0 mph9.7 kmh 30.61 in1036.6 mb 0.00 in0.0 mm 0.00 in0.0 mm 0.00 in0.0 mm
09:15 PM 15.6°F-9.1°C 5.9°F-14.5°C 65% 1.0 mph WNW1.6 kmh WNW 5.0 mph8.0 kmh 30.61 in1036.6 mb 0.00 in0.0 mm 0.00 in0.0 mm 0.00 in0.0 mm
09:30 PM 15.2°F-9.3°C 6.2°F-14.3°C 67% 6.0 mph W9.7 kmh W 7.0 mph11.3 kmh 30.61 in1036.6 mb 0.00 in0.0 mm 0.00 in0.0 mm 0.00 in0.0 mm
09:45 PM 15.1°F-9.4°C 5.5°F-14.7°C 65% 3.0 mph W4.8 kmh W 8.0 mph12.9 kmh 30.61 in1036.6 mb 0.00 in0.0 mm 0.00 in0.0 mm 0.00 in0.0 mm
10:00 PM 15.0°F-9.4°C 5.4°F-14.8°C 65% 3.0 mph NW4.8 kmh NW 9.0 mph14.5 kmh 30.60 in1036.2 mb 0.00 in0.0 mm 0.00 in0.0 mm 0.00 in0.0 mm
10:15 PM 14.7°F-9.6°C 5.1°F-14.9°C 65% 5.0 mph NW8.0 kmh NW 9.0 mph14.5 kmh 30.60 in1036.2 mb 0.00 in0.0 mm 0.00 in0.0 mm 0.00 in0.0 mm
10:30 PM 14.4°F-9.8°C 5.5°F-14.7°C 67% 7.0 mph NW11.3 kmh NW 9.0 mph14.5 kmh 30.60 in1036.2 mb 0.00 in0.0 mm 0.00 in0.0 mm 0.00 in0.0 mm
10:45 PM 13.9°F-10.1°C 5.0°F-15.0°C 67% 7.0 mph NW11.3 kmh NW 10.0 mph16.1 kmh 30.60 in1036.2 mb 0.00 in0.0 mm 0.00 in0.0 mm 0.00 in0.0 mm
11:00 PM 13.8°F-10.1°C 4.9°F-15.1°C 67% 8.0 mph WNW12.9 kmh WNW 12.0 mph19.3 kmh 30.60 in1036.2 mb 0.00 in0.0 mm 0.00 in0.0 mm 0.00 in0.0 mm
11:15 PM 13.3°F-10.4°C 4.7°F-15.2°C 68% 6.0 mph NW9.7 kmh NW 11.0 mph17.7 kmh 30.59 in1035.9 mb 0.00 in0.0 mm 0.00 in0.0 mm 0.00 in0.0 mm
11:30 PM 13.1°F-10.5°C 4.9°F-15.1°C 69% 10.0 mph NW16.1 kmh NW 11.0 mph17.7 kmh 30.58 in1035.6 mb 0.00 in0.0 mm 0.00 in0.0 mm 0.00 in0.0 mm
11:45 PM 12.7°F-10.7°C 4.8°F-15.1°C 70% 4.0 mph WNW6.4 kmh WNW 11.0 mph17.7 kmh 30.59 in1035.9 mb 0.00 in0.0 mm 0.00 in0.0 mm 0.00 in0.0 mm